• Join FlightAware (Why Join?)
  • Login
  • US Flag 
11:42PM EDT


 

Airport Tracker/Info


-or-


 

Live Flight TrackerFlight Track Log ✈ N92TE ✈ 26-Jan-2014 ✈ KHSD - KUAO

Flight Track Log - Related Links

Times and Time Zones

All times are in EST time to prevent confusion due to time zone crossing. See the N92TE flight status page for this flight to view local times or setup timezone preferences in your user account.

Time Position Orientation Groundspeed Altitude Reporting Facility
EST Latitude Longitude Course Direction KTS MPH feet Rate Location/Type
05:42PM 35.6528 -97.8347 269° West 222 255 7,000  Level Fort Worth Center
05:43PM 35.6583 -97.9161 275° West 240 276 9,000 1,740 Climbing Fort Worth Center
05:44PM 35.6692 -98.0108 278° West 272 313 10,700 1,680 Climbing Fort Worth Center
05:45PM 35.6692 -98.1069 270° West 283 326 12,500 1,740 Climbing Fort Worth Center
05:46PM 35.6778 -98.2064 276° West 290 334 14,400 1,980 Climbing Fort Worth Center
05:47PM 35.7119 -98.3067 293° West 285 328 16,600 1,920 Climbing Fort Worth Center
05:48PM 35.7592 -98.3911 305° West 297 342 18,400 1,500 Climbing Fort Worth Center
05:49PM 35.8072 -98.4764 305° West 305 351 19,800 1,440 Climbing Fort Worth Center
05:50PM 35.8589 -98.5622 307° West 310 357 21,400 1,500 Climbing Fort Worth Center
05:51PM 35.9050 -98.6522 302° West 313 360 23,000 1,380 Climbing Kansas City Center
05:53PM 35.9561 -98.7447 304° West 311 358 24,400 1,260 Climbing Kansas City Center
05:54PM 36.0172 -98.8483 306° West 311 358 25,700 1,200 Climbing Kansas City Center
05:55PM 36.0647 -98.9394 303° West 315 362 26,900 1,140 Climbing Kansas City Center
05:56PM 36.1122 -99.0297 303° West 314 361 28,200 1,080 Climbing Kansas City Center
05:57PM 36.1617 -99.1153 306° West 309 356 29,200 900 Climbing Kansas City Center
05:58PM 36.2106 -99.2053 304° West 313 360 30,100 900 Climbing Kansas City Center
05:59PM 36.2653 -99.3047 304° West 319 367 31,100 1,020 Climbing Kansas City Center
06:00PM 36.3139 -99.3950 304° West 318 366 32,200 960 Climbing Kansas City Center
06:01PM 36.3628 -99.4847 304° West 315 362 33,200 960 Climbing Kansas City Center
06:02PM 36.4100 -99.5719 304° West 309 356 34,300 1,080 Climbing Kansas City Center
06:03PM 36.4656 -99.6725 305° West 297 342 35,500 960 Climbing Kansas City Center
06:04PM 36.5097 -99.7544 304° West 289 333 36,400 840 Climbing Kansas City Center
06:05PM 36.5517 -99.8331 304° West 278 320 37,300 720 Climbing Kansas City Center
06:06PM 36.5922 -99.9094 303° West 268 308 38,000 600 Climbing Kansas City Center
06:07PM 36.6325 -99.9822 305° West 259 298 38,600 420 Climbing Kansas City Center
06:08PM 36.6719 -100.0547 304° West 254 292 38,900 360 Climbing Kansas City Center
06:09PM 36.7200 -100.1439 304° West 257 296 39,400 360 Climbing Kansas City Center
06:10PM 36.7581 -100.2139 304° West 258 297 39,700 240 Climbing Kansas City Center
06:11PM 36.8008 -100.2958 303° West 255 293 40,000 240 Climbing Kansas City Center
06:12PM 36.8378 -100.3658 303° West 252 290 40,200 180 Climbing Kansas City Center
06:13PM 36.8808 -100.4464 304° West 251 289 40,400 180 Climbing Kansas City Center
06:14PM 36.9181 -100.5164 304° West 251 289 40,600 180 Climbing Kansas City Center
06:15PM 36.9611 -100.5975 304° West 251 289 40,800 180 Climbing Kansas City Center
06:16PM 36.9978 -100.6675 303° West 250 288 41,000 60 Climbing Kansas City Center
06:17PM 37.0342 -100.7378 303° West 251 289 41,000  Level Kansas City Center
06:18PM 37.0783 -100.8203 304° West 254 292 41,000  Level Kansas City Center
06:19PM 37.1158 -100.8939 303° West 259 298 41,000  Level Kansas City Center
06:20PM 37.1614 -100.9806 303° West 263 303 41,000  Level Kansas City Center
06:21PM 37.2006 -101.0561 303° West 268 308 41,000  Level Kansas City Center
06:22PM 37.2472 -101.1456 303° West 272 313 41,000  Level Kansas City Center
06:24PM 37.2869 -101.2239 303° West 275 316 41,000  Level Kansas City Center
06:25PM 37.3278 -101.3022 303° West 278 320 41,000  Level Kansas City Center
06:26PM 37.3747 -101.3933 303° West 278 320 41,000  Level Kansas City Center
06:27PM 37.4153 -101.4733 303° West 280 322 41,000  Level Kansas City Center
06:28PM 37.4636 -101.5667 303° West 283 326 41,000  Level Kansas City Center
06:29PM 37.5050 -101.6475 303° West 285 328 41,000  Level Kansas City Center
06:30PM 37.5528 -101.7406 303° West 283 326 41,000  Level Kansas City Center
06:31PM 37.5931 -101.8208 302° West 284 327 41,000  Level Kansas City Center
06:32PM 37.6414 -101.9144 303° West 284 327 41,000  Level Kansas City Center
06:33PM 37.6825 -101.9967 302° West 287 330 41,000  Level Kansas City Center
06:34PM 37.7236 -102.0786 302° West 288 331 41,000  Level Kansas City Center
06:35PM 37.7714 -102.1744 302° West 287 330 41,000  Level Denver Center
06:36PM 37.8131 -102.2547 303° West 285 328 41,000  Level Denver Center
06:37PM 37.8608 -102.3503 302° West 287 330 41,000  Level Denver Center
06:38PM 37.8997 -102.4319 301° West 284 327 41,000  Level Denver Center
06:39PM 37.9408 -102.5150 302° West 285 328 41,000  Level Denver Center
06:40PM 37.9889 -102.6089 303° West 284 327 41,000  Level Denver Center
06:41PM 38.0286 -102.6883 302° West 284 327 41,000  Level Denver Center
06:42PM 38.0753 -102.7833 302° West 283 326 41,000  Level Denver Center
06:43PM 38.1164 -102.8647 303° West 285 328 41,000  Level Denver Center
06:44PM 38.1631 -102.9606 302° West 285 328 41,000  Level Denver Center
06:45PM 38.2022 -103.0422 301° West 283 326 41,000  Level Denver Center
06:46PM 38.2489 -103.1367 302° West 281 323 41,000  Level Denver Center
06:47PM 38.2886 -103.2181 302° West 284 327 41,000  Level Denver Center
06:48PM 38.3361 -103.3139 302° West 287 330 41,000  Level Denver Center
06:49PM 38.3783 -103.3961 303° West 289 333 41,000  Level Denver Center
06:50PM 38.4175 -103.4811 300° West 289 333 41,000  Level Denver Center
06:51PM 38.4644 -103.5800 301° West 292 336 41,000  Level Denver Center
06:52PM 38.5031 -103.6622 301° West 287 330 41,000  Level Denver Center
06:53PM 38.5506 -103.7606 302° West 289 333 41,000  Level Denver Center
06:54PM 38.5911 -103.8461 301° West 292 336 41,000  Level Denver Center
06:55PM 38.6378 -103.9436 302° West 290 334 41,000  Level Denver Center
06:56PM 38.6783 -104.0289 301° West 293 337 41,000  Level Denver Center
06:58PM 38.7239 -104.1244 301° West 289 333 41,000  Level Denver Center
06:59PM 38.7750 -104.2311 302° West 291 335 41,000  Level Denver Center
07:00PM 38.8164 -104.3197 301° West 291 335 41,000  Level Denver Center
07:01PM 38.8575 -104.4094 300° West 291 335 41,000  Level Denver Center
07:02PM 38.9000 -104.4967 302° West 291 335 41,000  Level Denver Center
07:03PM 38.9403 -104.5842 301° West 287 330 41,000  Level Denver Center
07:04PM 38.9897 -104.6881 302° West 283 326 41,000  Level Denver Center
07:05PM 39.0211 -104.7569 300° West 280 322 41,100 60 Climbing Denver Center
07:06PM 39.0714 -104.8647 301° West 290 334 41,200 120 Climbing Denver Center
07:07PM 39.1111 -104.9514 301° West 283 326 41,400 240 Climbing Denver Center
07:08PM 39.1503 -105.0383 300° West 282 325 41,700 180 Climbing Denver Center
07:09PM 39.1908 -105.1250 301° West 281 323 41,900 180 Climbing Denver Center
07:10PM 39.2394 -105.2275 302° West 279 321 42,200 240 Climbing Denver Center
07:11PM 39.2833 -105.3272 300° West 267 307 42,500 240 Climbing Denver Center
07:12PM 39.3206 -105.4069 301° West 261 300 42,700 180 Climbing Denver Center
07:13PM 39.3558 -105.4869 300° West 258 297 42,900 120 Climbing Denver Center
07:14PM 39.3917 -105.5647 301° West 252 290 43,000  Climbing Denver Center
07:15PM 39.4269 -105.6425 300° West 251 289 43,000  Level Denver Center
07:16PM 39.4636 -105.7219 301° West 256 295 43,000  Level Denver Center
07:17PM 39.4978 -105.7997 300° West 251 289 43,000  Level Denver Center
07:19PM 39.5414 -105.8956 301° West 257 296 43,000  Level Denver Center
07:20PM 39.5783 -105.9781 300° West 263 303 43,000  Level Denver Center
07:21PM 39.6150 -106.0606 300° West 265 305 43,000  Level Denver Center
07:22PM 39.6531 -106.1447 300° West 268 308 43,000  Level Denver Center
07:23PM 39.6914 -106.2322 300° West 277 319 43,000  Level Denver Center
07:24PM 39.7292 -106.3200 299° West 280 322 43,000  Level Denver Center
07:25PM 39.7689 -106.4069 301° West 280 322 43,000  Level Denver Center
07:26PM 39.8131 -106.5094 299° West 282 325 43,000  Level Denver Center
07:27PM 39.8519 -106.5967 300° West 280 322 43,000  Level Denver Center
07:28PM 39.8908 -106.6842 300° West 280 322 43,000  Level Denver Center
07:29PM 39.9289 -106.7736 299° West 282 325 43,000  Level Denver Center
07:30PM 39.9639 -106.8556 299° West 280 322 43,000  Level Denver Center
07:31PM 40.0131 -106.9678 300° West 280 322 43,000  Level Denver Center
07:32PM 40.0494 -107.0514 300° West 279 321 43,000  Level Denver Center
07:33PM 40.0833 -107.1339 298° West 271 312 43,000  Level Denver Center
07:34PM 40.1269 -107.2303 301° West 276 318 43,000  Level Denver Center
07:35PM 40.1617 -107.3147 298° West 276 318 43,000  Level Denver Center
07:36PM 40.2039 -107.4122 300° West 276 318 43,000  Level Denver Center
07:37PM 40.2389 -107.4950 299° West 273 314 43,000  Level Denver Center
07:38PM 40.2861 -107.6064 299° West 274 315 43,000  Level Denver Center
07:39PM 40.3272 -107.7039 299° West 273 314 43,000  Level Denver Center
07:40PM 40.3636 -107.7886 299° West 277 319 43,000  Level Denver Center
07:41PM 40.3989 -107.8728 299° West 276 318 43,000  Level Denver Center
07:42PM 40.4400 -107.9722 299° West 277 319 43,000  Level Denver Center
07:44PM 40.4756 -108.0558 299° West 276 318 43,000  Level Denver Center
07:45PM 40.5158 -108.1514 299° West 270 311 43,000  Level Denver Center
07:46PM 40.5500 -108.2350 298° West 271 312 43,000  Level Denver Center
07:47PM 40.5900 -108.3314 299° West 270 311 43,000  Level Denver Center
07:48PM 40.6239 -108.4125 299° West 266 306 43,000  Level Denver Center
07:49PM 40.6636 -108.5111 298° West 271 312 43,000  Level Denver Center
07:50PM 40.6992 -108.5950 299° West 274 315 43,000  Level Denver Center
07:51PM 40.7358 -108.6856 298° West 276 318 43,000  Level Denver Center
07:52PM 40.7767 -108.7864 298° West 279 321 43,000  Level Denver Center
07:53PM 40.8119 -108.8736 298° West 280 322 43,000  Level Denver Center
07:54PM 40.8542 -108.9772 298° West 284 327 43,000  Level Denver Center
07:55PM 40.8892 -109.0631 298° West 280 322 43,000  Level Denver Center
07:56PM 40.9289 -109.1631 298° West 275 316 43,000  Level Salt Lake Center
07:57PM 40.9639 -109.2492 298° West 277 319 43,000  Level Salt Lake Center
07:58PM 40.9972 -109.3350 297° West 273 314 43,000  Level Salt Lake Center
07:59PM 41.0369 -109.4339 298° West 272 313 43,000  Level Salt Lake Center
08:00PM 41.0706 -109.5197 297° West 273 314 43,000  Level Salt Lake Center
08:01PM 41.1053 -109.6042 299° West 273 314 43,000  Level Salt Lake Center
08:02PM 41.1453 -109.7078 297° West 279 321 43,000  Level Salt Lake Center
08:03PM 41.1800 -109.7950 298° West 278 320 43,000  Level Salt Lake Center
08:04PM 41.2194 -109.8975 297° West 279 321 43,000  Level Salt Lake Center
08:05PM 41.2550 -109.9839 299° West 279 321 43,000  Level Salt Lake Center
08:06PM 41.2881 -110.0731 296° West 279 321 43,000  Level Salt Lake Center
08:07PM 41.3292 -110.1775 298° West 284 327 43,000  Level Salt Lake Center
08:08PM 41.3642 -110.2667 298° West 285 328 43,000  Level Salt Lake Center
08:09PM 41.4047 -110.3722 297° West 286 329 43,000  Level Salt Lake Center
08:10PM 41.4400 -110.4628 297° West 287 330 43,000  Level Salt Lake Center
08:11PM 41.4747 -110.5553 297° West 290 334 43,000  Level Salt Lake Center
08:12PM 41.5161 -110.6600 298° West 287 330 43,000  Level Salt Lake Center
08:13PM 41.5497 -110.7506 296° West 285 328 43,000  Level Salt Lake Center
08:14PM 41.5897 -110.8564 297° West 284 327 43,000  Level Salt Lake Center
08:15PM 41.6239 -110.9453 297° West 282 325 43,000  Level Salt Lake Center
08:16PM 41.6592 -111.0389 297° West 283 326 43,000  Level Salt Lake Center
08:17PM 41.6950 -111.1325 297° West 284 327 43,000  Level Salt Lake Center
08:18PM 41.7297 -111.2267 296° West 284 327 43,000  Level Salt Lake Center
08:19PM 41.7650 -111.3206 297° West 283 326 43,000  Level Salt Lake Center
08:20PM 41.8081 -111.4353 297° West 289 333 43,000  Level Salt Lake Center
08:21PM 41.8431 -111.5294 297° West 286 329 43,000  Level Salt Lake Center
08:23PM 41.8783 -111.6264 296° West 290 334 43,000  Level Salt Lake Center
08:24PM 41.9133 -111.7225 296° West 288 331 43,000  Level Salt Lake Center
08:25PM 41.9494 -111.8183 297° West 289 333 43,000  Level Salt Lake Center
08:26PM 41.9842 -111.9144 296° West 288 331 43,000  Level Salt Lake Center
08:27PM 42.0203 -112.0097 297° West 288 331 43,000  Level Salt Lake Center
08:28PM 42.0550 -112.1064 296° West 288 331 43,000  Level Salt Lake Center
08:29PM 42.0969 -112.2231 296° West 290 334 43,000  Level Salt Lake Center
08:30PM 42.1322 -112.3189 296° West 288 331 43,000  Level Salt Lake Center
08:31PM 42.1667 -112.4164 296° West 289 333 43,000  Level Salt Lake Center
08:32PM 42.2011 -112.5117 296° West 287 330 43,000  Level Salt Lake Center
08:33PM 42.2361 -112.6078 296° West 287 330 43,000  Level Salt Lake Center
08:34PM 42.2700 -112.7039 296° West 285 328 43,000  Level Salt Lake Center
08:35PM 42.3047 -112.8000 296° West 286 329 43,000  Level Salt Lake Center
08:36PM 42.3458 -112.9144 296° West 284 327 43,000  Level Salt Lake Center
08:37PM 42.3794 -113.0111 295° West 285 328 43,100 120 Climbing Salt Lake Center
08:38PM 42.4133 -113.1081 295° West 285 328 43,300 180 Climbing Salt Lake Center
08:39PM 42.4467 -113.2053 295° West 287 330 43,500 180 Climbing Salt Lake Center
08:40PM 42.4814 -113.3006 296° West 284 327 43,700 120 Climbing Salt Lake Center
08:41PM 42.5142 -113.3969 295° West 282 325 43,800 120 Climbing Salt Lake Center
08:42PM 42.5483 -113.4922 296° West 282 325 44,000 180 Climbing Salt Lake Center
08:43PM 42.5822 -113.5917 295° West 289 333 44,200 120 Climbing Salt Lake Center
08:44PM 42.6150 -113.6875 295° West 282 325 44,300 120 Climbing Salt Lake Center
08:45PM 42.6550 -113.8044 295° West 284 327 44,500 180 Climbing Salt Lake Center
08:46PM 42.6856 -113.9072 292° West 290 334 44,700 180 Climbing Salt Lake Center
08:47PM 42.7197 -114.0011 296° West 279 321 44,900 120 Climbing Salt Lake Center
08:48PM 42.7525 -114.0958 295° West 278 320 45,000  Climbing Salt Lake Center
08:49PM 42.7844 -114.1911 295° West 278 320 45,000  Level Salt Lake Center
08:50PM 42.8169 -114.2878 295° West 279 321 45,000  Level Salt Lake Center
08:51PM 42.8497 -114.3864 294° West 286 329 45,000  Level Salt Lake Center
08:52PM 42.8839 -114.4836 296° West 282 325 45,000  Level Salt Lake Center
08:53PM 42.9192 -114.5881 295° West 293 337 45,000  Level Salt Lake Center
08:54PM 42.9528 -114.6889 295° West 292 336 45,000  Level Salt Lake Center
08:55PM 42.9919 -114.8083 294° West 290 334 45,000  Level Salt Lake Center
08:56PM 43.0250 -114.9086 294° West 289 333 45,000  Level Salt Lake Center
08:57PM 43.0581 -115.0081 294° West 289 333 45,000  Level Salt Lake Center
08:58PM 43.0911 -115.1081 294° West 289 333 45,000  Level Salt Lake Center
08:59PM 43.1222 -115.2075 293° West 286 329 45,000  Level Salt Lake Center
09:00PM 43.1544 -115.3053 294° West 283 326 45,000  Level Salt Lake Center
09:01PM 43.1861 -115.4058 293° West 287 330 45,000  Level Salt Lake Center
09:02PM 43.2172 -115.5022 294° West 279 321 45,000  Level Salt Lake Center
09:03PM 43.2489 -115.5992 294° West 279 321 45,000 -240 Level Salt Lake Center
09:04PM 43.2803 -115.6978 294° West 283 326 44,600 -540 Descending Salt Lake Center
09:05PM 43.3194 -115.8219 293° West 295 339 44,000 -300 Descending Salt Lake Center
09:06PM 43.3525 -115.9272 293° West 299 344 44,000  Level Salt Lake Center
09:08PM 43.3853 -116.0308 294° West 296 341 44,000  Level Salt Lake Center
09:09PM 43.4175 -116.1331 293° West 293 337 44,000  Level Salt Lake Center
09:10PM 43.4486 -116.2342 293° West 288 331 44,000  Level Salt Lake Center
09:11PM 43.4803 -116.3350 293° West 287 330 44,000  Level Salt Lake Center
09:12PM 43.5119 -116.4364 293° West 287 330 44,000  Level Salt Lake Center
09:13PM 43.5431 -116.5372 293° West 286 329 44,000  Level Salt Lake Center
09:14PM 43.5744 -116.6397 293° West 290 334 44,000  Level Salt Lake Center
09:15PM 43.6053 -116.7400 293° West 285 328 44,000  Level Salt Lake Center
09:16PM 43.6367 -116.8422 293° West 288 331 44,000  Level Salt Lake Center
09:17PM 43.6678 -116.9447 293° West 288 331 44,000  Level Salt Lake Center
09:18PM 43.7053 -117.0658 293° West 287 330 44,000  Level Salt Lake Center
09:19PM 43.7361 -117.1694 292° West 290 334 44,000  Level Salt Lake Center
09:20PM 43.7672 -117.2708 293° West 287 330 44,000  Level Salt Lake Center
09:21PM 43.7975 -117.3728 292° West 286 329 44,000  Level Salt Lake Center
09:22PM 43.8275 -117.4750 292° West 287 330 44,000  Level Salt Lake Center
09:23PM 43.8575 -117.5769 292° West 287 330 44,000  Level Salt Lake Center
09:24PM 43.8875 -117.6786 292° West 286 329 44,000  Level Salt Lake Center
09:25PM 43.9192 -117.7811 293° West 291 335 44,000  Level Salt Lake Center
09:26PM 43.9489 -117.8850 292° West 290 334 44,000  Level Salt Lake Center
09:27PM 43.9783 -117.9872 292° West 287 330 44,000  Level Salt Lake Center
09:28PM 44.0094 -118.0908 293° West 291 335 44,000  Level Salt Lake Center
09:29PM 44.0450 -118.2147 292° West 290 334 44,000  Level Salt Lake Center
09:30PM 44.0750 -118.3175 292° West 287 330 44,000  Level Salt Lake Center
09:31PM 44.1019 -118.4125 292° West 289 333 44,000  Level Salt Lake Center
09:32PM 44.1322 -118.5161 292° West 289 333 44,000  Level Salt Lake Center
09:33PM 44.1486 -118.5800 290° West 291 335 44,000  Level Seattle Center
09:34PM 44.1789 -118.6844 292° West 292 336 44,000  Level Seattle Center
09:35PM 44.2081 -118.7892 291° West 292 336 44,000  Level Seattle Center
09:36PM 44.2431 -118.9150 291° West 289 333 44,000  Level Seattle Center
09:37PM 44.2756 -119.0189 294° West 293 337 44,000  Level Seattle Center
09:38PM 44.3047 -119.1244 291° West 292 336 44,000  Level Seattle Center
09:39PM 44.3353 -119.2300 292° West 293 337 44,000  Level Seattle Center
09:40PM 44.3642 -119.3372 291° West 293 337 44,000  Level Seattle Center
09:41PM 44.3939 -119.4450 291° West 297 342 44,000  Level Seattle Center
09:42PM 44.4239 -119.5533 291° West 299 344 44,000  Level Seattle Center
09:43PM 44.4531 -119.6614 291° West 298 343 44,000  Level Seattle Center
09:44PM 44.4825 -119.7711 291° West 300 345 44,000  Level Seattle Center
09:45PM 44.5119 -119.8817 291° West 302 348 44,000  Level Seattle Center
09:46PM 44.5422 -119.9928 291° West 304 350 44,000  Level Seattle Center
09:47PM 44.5725 -120.1047 291° West 305 351 44,000  Level Seattle Center
09:48PM 44.6022 -120.2167 290° West 305 351 44,000  Level Seattle Center
09:49PM 44.6319 -120.3292 290° West 307 353 44,000  Level Seattle Center
09:50PM 44.6622 -120.4444 290° West 312 359 44,000  Level Seattle Center
09:51PM 44.6922 -120.5572 291° West 308 354 44,000  Level Seattle Center
09:52PM 44.7219 -120.6711 290° West 309 356 44,000 -480 Level Seattle Center
09:53PM 44.7553 -120.7983 290° West 314 361 43,100 -1,620 Descending Seattle Center
09:54PM 44.7883 -120.9325 289° West 353 406 40,800 -2,400 Descending Seattle Center
09:55PM 44.8250 -121.0736 290° West 384 442 38,300 -2,220 Descending Seattle Center
09:56PM 44.8575 -121.2017 290° West 358 412 36,400 -2,160 Descending Seattle Center
09:57PM 44.8886 -121.3203 290° West 331 381 34,000 -2,460 Descending Seattle Center
09:58PM 44.9164 -121.4333 289° West 330 380 31,500 -2,580 Descending Seattle Center
09:59PM 44.9492 -121.5622 290° West 347 399 28,800 -3,480 Descending Seattle Center
09:59PM 44.9739 -121.6686 288° West 364 419 26,000 -4,380 Descending Seattle Center
10:00PM 44.9897 -121.7242 292° West 363 418 24,400 -3,480 Descending Seattle Center
10:00PM 45.0025 -121.7822 287° West 367 422 22,900 -3,720 Descending Seattle Center
10:01PM 45.0228 -121.8586 291° West 364 419 20,700 -4,080 Descending Seattle Center
10:01PM 45.0372 -121.9269 287° West 358 412 18,800 -3,780 Descending Seattle Center
10:02PM 45.0564 -121.9914 293° West 353 406 16,900 -3,300 Descending Seattle Center
10:02PM 45.0614 -122.0211 283° West 343 395 16,200 -2,700 Descending Seattle Center
10:03PM 45.0836 -122.1069 290° West 311 358 14,200 -2,580 Descending Seattle Center
10:03PM 45.0889 -122.1322 286° West 287 330 13,600 -2,460 Descending Seattle Center
10:04PM 45.1089 -122.2114 290° West 284 327 11,700 -2,640 Descending Seattle Center
10:04PM 45.1192 -122.2575 288° West 270 311 10,400 -2,820 Descending Seattle Center
10:05PM 45.1336 -122.3111 291° West 271 312 8,900 -2,640 Descending Seattle Center
10:05PM 45.1394 -122.3350 289° West 268 308 8,300 -2,580 Descending Seattle Center
10:06PM 45.1478 -122.4131 279° West 266 306 6,300 -2,400 Descending Seattle Center
10:06PM 45.1497 -122.4594 273° West 256 295 5,400 -1,500 Descending Seattle Center
10:07PM 45.1569 -122.5089 282° West 248 285 4,800 -660 Descending Seattle Center
10:08PM 45.1694 -122.6047 281° West 236 272 4,400 -420 Descending Seattle Center